Limehouse, South Carolina
Current Conditions -  °F | °C
As of 3:53 PM on Friday 19 Dec 2014 (Local Time) from KSAV Reporting Station
Broken Clouds Broken Clouds  
Wind Chill: 62°   Ceiling: 25000
Heat Index: 62°   Visibility: 10mi
Dew Point: 38°   Wind: 6mph
Humidity: 41%   Direction: 250°WSW
Pressure: 30.1"   Gusts: NA
Location:  32.2576°N, 81.057°W
Report Text: KSAV 192053Z 25005KT 10SM SCT150 BKN250 17/03 A3010 RMK AO2 SLP192 T01670033 56006
Loading
Personal Weather Stations






























Interactive Weather Map New forecast layout! Learn more

10-Day Weather Forecast

Advertisements
Track Severe Weather on mobile